createdAt,value
2022-08-10T04:00:51.284Z,52.51
2022-08-10T04:05:53.805Z,52.01
2022-08-10T04:10:56.383Z,52.10
2022-08-10T04:15:58.614Z,53.58
2022-08-10T04:21:08.717Z,54.57
2022-08-10T04:26:12.613Z,53.89
2022-08-10T04:31:17.654Z,54.96
2022-08-10T04:36:22.079Z,52.96
2022-08-10T04:41:25.381Z,52.49
2022-08-10T04:46:42.675Z,51.97
2022-08-10T04:51:50.073Z,52.15
2022-08-10T04:56:52.371Z,51.61
2022-08-10T05:02:30.043Z,51.67
2022-08-10T05:07:18.459Z,50.81
2022-08-10T05:12:21.155Z,51.09
2022-08-10T05:17:23.708Z,51.18
2022-08-10T05:22:26.013Z,50.29
2022-08-10T05:27:28.592Z,50.37
2022-08-10T05:32:55.312Z,50.20
2022-08-10T05:38:08.898Z,50.18
2022-08-10T05:43:21.170Z,50.24
2022-08-10T05:48:54.415Z,49.82
2022-08-10T05:54:03.407Z,50.28
2022-08-10T05:59:07.730Z,49.64
2022-08-10T06:04:13.538Z,49.91
2022-08-10T06:09:17.405Z,49.86
2022-08-10T06:14:39.401Z,49.69
2022-08-10T06:19:50.955Z,51.06
2022-08-10T06:25:23.138Z,48.78
2022-08-10T06:30:20.558Z,48.46
2022-08-10T06:35:27.880Z,48.61
2022-08-10T06:40:36.651Z,48.67
2022-08-10T06:45:47.466Z,48.23
2022-08-10T06:51:18.135Z,47.65
2022-08-10T06:56:35.801Z,47.40
2022-08-10T07:01:43.591Z,46.86
2022-08-10T07:06:56.975Z,46.44
2022-08-10T07:12:07.959Z,46.19
2022-08-10T07:17:15.963Z,46.01
2022-08-10T07:23:22.823Z,45.39
2022-08-10T07:27:59.785Z,44.79
2022-08-10T07:33:05.421Z,43.69
2022-08-10T07:38:10.609Z,43.20
2022-08-10T07:43:14.226Z,42.62
2022-08-10T07:48:21.732Z,42.57
2022-08-10T07:53:27.256Z,40.51
2022-08-10T07:58:35.869Z,39.00
2022-08-10T08:03:40.423Z,38.28
2022-08-10T08:08:44.287Z,37.53
2022-08-10T08:13:48.185Z,36.40
2022-08-10T08:19:23.900Z,25.19
2022-08-10T08:24:32.935Z,16.42
2022-08-10T08:29:39.252Z,10.11
2022-08-10T08:34:44.072Z,6.20
2022-08-10T08:39:47.267Z,5.75
2022-08-10T08:45:17.169Z,11.70
2022-08-10T08:50:57.964Z,18.71
2022-08-10T08:56:10.009Z,22.32
2022-08-10T09:01:40.463Z,23.43
2022-08-10T09:06:46.370Z,22.87
2022-08-10T09:12:10.448Z,22.39
2022-08-10T09:17:38.555Z,23.92
2022-08-10T09:22:57.221Z,22.83
2022-08-10T09:28:09.496Z,23.27
2022-08-10T09:36:26.173Z,21.98
2022-08-10T09:40:55.857Z,18.46
2022-08-10T09:44:57.654Z,20.50
2022-08-10T09:50:04.476Z,21.09
2022-08-10T09:55:20.678Z,19.93
2022-08-10T10:00:30.624Z,19.49
2022-08-10T10:06:03.517Z,16.65
2022-08-10T10:11:21.106Z,17.72
2022-08-10T10:16:32.915Z,17.52
2022-08-10T10:22:07.658Z,16.48
2022-08-10T10:27:50.103Z,15.98
2022-08-10T10:33:01.139Z,18.08
2022-08-10T10:38:07.738Z,16.68
2022-08-10T10:43:16.355Z,15.60
2022-08-10T10:48:41.564Z,13.27
2022-08-10T10:54:02.509Z,17.82
2022-08-10T10:59:55.181Z,18.10
2022-08-10T11:05:04.909Z,18.61
2022-08-10T11:10:34.209Z,17.20
2022-08-10T11:15:47.598Z,18.19
2022-08-10T11:21:04.240Z,19.08
2022-08-10T11:26:24.400Z,19.06
2022-08-10T11:31:43.248Z,19.06
2022-08-10T11:37:16.354Z,16.28
2022-08-10T11:42:36.325Z,18.51
2022-08-10T11:47:54.180Z,18.06
2022-08-10T11:53:14.999Z,18.89
2022-08-10T11:58:36.521Z,21.00
2022-08-10T12:03:41.523Z,20.06
2022-08-10T12:10:11.122Z,20.07
2022-08-10T12:14:24.266Z,19.78
2022-08-10T12:19:59.920Z,19.75
2022-08-10T12:31:25.020Z,18.48
2022-08-10T12:36:50.774Z,18.68
2022-08-10T12:43:13.568Z,17.73
2022-08-10T13:52:32.063Z,20.62
2022-08-10T13:57:35.830Z,20.62
2022-08-10T14:02:59.931Z,20.50
2022-08-10T14:08:05.545Z,20.86
2022-08-10T14:13:10.171Z,21.14
2022-08-10T14:18:13.875Z,20.29
2022-08-10T14:23:16.524Z,20.93
2022-08-10T14:28:21.946Z,21.25
2022-08-10T14:33:25.218Z,21.30
2022-08-10T14:38:31.803Z,19.94
2022-08-10T14:43:41.735Z,20.93
2022-08-10T14:48:47.304Z,21.41
2022-08-10T14:53:55.759Z,21.46
2022-08-10T14:59:07.001Z,21.48
2022-08-10T15:04:13.112Z,21.61
2022-08-10T15:09:20.207Z,22.70
2022-08-10T15:14:41.471Z,23.09
2022-08-10T15:20:03.696Z,22.25
2022-08-10T15:25:25.246Z,22.37
2022-08-10T15:30:31.407Z,22.57
2022-08-10T15:35:54.634Z,22.51
2022-08-10T15:40:58.899Z,22.51
2022-08-10T15:46:09.713Z,22.03
2022-08-10T15:51:33.853Z,22.18
2022-08-10T15:56:56.699Z,22.38
2022-08-10T16:02:16.113Z,22.74
2022-08-10T16:07:42.909Z,22.41
2022-08-10T16:12:59.910Z,23.50
2022-08-10T16:18:12.505Z,23.57
2022-08-10T16:23:19.043Z,23.27
2022-08-10T16:28:29.298Z,24.15
2022-08-10T16:33:53.644Z,23.81
2022-08-10T16:38:58.895Z,23.83
2022-08-10T16:44:02.380Z,24.10
2022-08-10T16:49:05.746Z,23.75
2022-08-10T16:54:10.528Z,23.71
2022-08-10T16:59:17.761Z,24.16
2022-08-10T17:04:24.936Z,24.06
2022-08-10T17:09:30.251Z,24.71
2022-08-10T17:14:32.830Z,24.98
2022-08-10T17:19:39.605Z,24.67
2022-08-10T17:24:47.840Z,25.43
2022-08-10T17:30:03.863Z,25.91
2022-08-10T17:35:12.392Z,25.73
2022-08-10T17:40:22.775Z,26.13
2022-08-10T17:45:47.467Z,26.40
2022-08-10T17:50:52.440Z,26.70
2022-08-10T17:55:57.903Z,26.98
2022-08-10T18:01:38.690Z,27.03
2022-08-10T18:06:25.691Z,27.39
2022-08-10T18:11:33.101Z,27.69
2022-08-10T18:16:41.816Z,27.79
2022-08-10T18:21:48.800Z,28.24
2022-08-10T18:26:54.109Z,28.51
2022-08-10T18:31:59.448Z,28.87
2022-08-10T18:37:05.092Z,29.00
2022-08-10T18:42:35.662Z,28.59
2022-08-10T18:47:58.950Z,29.40
2022-08-10T18:53:15.260Z,29.27
2022-08-10T18:58:50.277Z,29.88
2022-08-10T19:04:29.474Z,30.31
2022-08-10T19:09:53.246Z,30.95
2022-08-10T19:15:17.807Z,30.75
2022-08-10T19:20:31.636Z,30.88
2022-08-10T19:26:36.500Z,31.47
2022-08-10T19:31:41.866Z,32.56
2022-08-10T19:36:49.226Z,31.85
2022-08-10T19:42:15.816Z,31.99
2022-08-10T19:47:17.990Z,32.20
2022-08-10T19:52:47.790Z,32.25
2022-08-10T19:58:07.587Z,32.87
2022-08-10T20:03:49.305Z,32.99
2022-08-10T20:09:10.639Z,33.00
2022-08-10T20:14:23.066Z,32.91
2022-08-10T20:19:52.839Z,33.08
2022-08-10T20:25:14.126Z,33.71
2022-08-10T20:30:17.220Z,33.42
2022-08-10T20:35:31.280Z,33.38
2022-08-10T20:40:59.770Z,33.52
2022-08-10T20:46:24.993Z,33.83
2022-08-10T20:51:58.811Z,34.10
2022-08-10T20:57:55.808Z,33.91
2022-08-10T21:02:57.877Z,34.20
2022-08-10T21:08:27.393Z,34.35
2022-08-10T21:13:56.725Z,34.69
2022-08-10T21:19:27.006Z,35.30
2022-08-10T21:24:45.892Z,34.91
2022-08-10T21:30:09.537Z,35.74
2022-08-10T21:35:44.498Z,35.83
2022-08-10T21:41:17.632Z,35.11
